Time;durP1;ratioP1;P1;durP2;ratioP2;P2;SDS_P1;SDS_P2;PMS_P1;PMS_P2;Temp;Humidity;BMP_temperature;BMP_pressure;BME280_temperature;BME280_humidity;BME280_pressure;Samples;Min_cycle;Max_cycle;Signal;HPM_P1;HPM_P2
2022/01/15 00:01:39;;;;;;;0.40;0.30;;;0.30;99.90;;;;;;5111773;28;20464;-90
2022/01/15 00:04:06;;;;;;;0.30;0.20;;;0.30;99.90;;;;;;5094513;28;20688;-88
2022/01/15 00:06:34;;;;;;;0.30;0.20;;;0.30;99.90;;;;;;5089253;28;20639;-88
2022/01/15 00:09:01;;;;;;;0.30;0.30;;;0.30;99.90;;;;;;5091574;28;20309;-88
2022/01/15 00:11:28;;;;;;;0.30;0.10;;;0.20;99.90;;;;;;5083059;28;20217;-88
2022/01/15 00:13:58;;;;;;;0.73;0.73;;;0.20;99.90;;;;;;5081728;28;20702;-91
2022/01/15 00:16:31;;;;;;;0.43;0.40;;;0.20;99.90;;;;;;5087624;28;20191;-88
2022/01/15 00:19:05;;;;;;;1.60;1.10;;;0.30;99.90;;;;;;5081672;28;20214;-89
2022/01/15 00:21:33;;;;;;;0.40;0.30;;;0.40;99.90;;;;;;5078406;28;20591;-89
2022/01/15 00:24:00;;;;;;;0.40;0.30;;;0.40;99.90;;;;;;5088434;28;20699;-91
2022/01/15 00:26:27;;;;;;;0.40;0.30;;;0.50;99.90;;;;;;5088895;28;20254;-90
2022/01/15 00:28:54;;;;;;;0.30;0.10;;;0.40;99.90;;;;;;5087072;28;20203;-91
2022/01/15 00:31:21;;;;;;;0.30;0.15;;;0.30;99.90;;;;;;5078592;28;20786;-90
2022/01/15 00:33:48;;;;;;;1.75;0.47;;;0.40;99.90;;;;;;5086774;28;20674;-91
2022/01/15 00:36:17;;;;;;;0.30;0.10;;;0.40;99.90;;;;;;5076312;28;20219;-91
2022/01/15 00:38:45;;;;;;;0.30;0.10;;;0.40;99.90;;;;;;5086722;28;20195;-91
2022/01/15 00:41:12;;;;;;;1.15;0.65;;;0.40;99.90;;;;;;5083063;28;20235;-90
2022/01/15 00:43:40;;;;;;;0.67;0.67;;;0.50;99.90;;;;;;5086417;28;20204;-92
2022/01/15 00:46:07;;;;;;;0.30;0.20;;;0.60;99.90;;;;;;5077925;28;20455;-91
2022/01/15 00:48:34;;;;;;;0.30;0.10;;;0.70;99.90;;;;;;5085203;28;20689;-89
2022/01/15 00:51:01;;;;;;;0.30;0.17;;;0.70;99.90;;;;;;5091754;28;20577;-90
2022/01/15 00:53:30;;;;;;;0.70;0.40;;;0.70;99.90;;;;;;5091193;28;20211;-90
2022/01/15 00:55:57;;;;;;;0.30;0.10;;;0.70;99.90;;;;;;5088410;28;20531;-90
2022/01/15 00:58:24;;;;;;;0.70;0.70;;;0.80;99.90;;;;;;5081300;28;20235;-91
2022/01/15 01:00:51;;;;;;;0.30;0.10;;;0.80;99.90;;;;;;5071676;28;20454;-90
2022/01/15 01:03:18;;;;;;;0.40;0.20;;;0.70;99.90;;;;;;5083804;28;20200;-89
2022/01/15 01:05:45;;;;;;;0.45;0.40;;;0.80;99.90;;;;;;5081525;28;20508;-90
2022/01/15 01:08:12;;;;;;;0.30;0.10;;;0.80;99.90;;;;;;5084900;28;20206;-89
2022/01/15 01:10:53;;;;;;;0.40;0.35;;;0.70;99.90;;;;;;5085483;28;20221;-89
2022/01/15 01:24:29;;;;;;;0.30;0.10;;;0.70;99.90;;;;;;5091509;28;20256;-87
2022/01/15 01:27:01;;;;;;;0.30;0.20;;;0.70;99.90;;;;;;5079896;28;20676;-87
2022/01/15 01:29:40;;;;;;;0.30;0.20;;;0.60;99.90;;;;;;5103525;28;20192;-88
2022/01/15 01:32:12;;;;;;;1.60;1.50;;;0.50;99.90;;;;;;5098871;28;20319;-87
2022/01/15 01:34:42;;;;;;;0.30;0.10;;;0.30;99.90;;;;;;5110780;28;20214;-89
2022/01/15 01:37:15;;;;;;;0.93;0.93;;;0.30;99.90;;;;;;5101994;28;20203;-87
2022/01/15 01:39:46;;;;;;;0.30;0.17;;;0.40;99.90;;;;;;5083357;28;20209;-91
2022/01/15 01:45:00;;;;;;;0.30;0.15;;;0.30;99.90;;;;;;5071121;28;20736;-91
2022/01/15 01:47:38;;;;;;;0.30;0.20;;;0.20;99.90;;;;;;5073989;28;20235;-90
2022/01/15 01:50:07;;;;;;;0.30;0.10;;;0.10;99.90;;;;;;5078347;28;20647;-89
2022/01/15 01:52:34;;;;;;;0.30;0.20;;;-0.10;99.90;;;;;;5084975;28;20259;-90
2022/01/15 01:55:01;;;;;;;0.30;0.10;;;-0.10;99.90;;;;;;5090034;28;20248;-90
2022/01/15 01:57:30;;;;;;;0.30;0.10;;;-0.20;99.90;;;;;;5090123;28;20304;-91
2022/01/15 01:59:57;;;;;;;0.30;0.10;;;-0.20;99.90;;;;;;5082202;28;20203;-94
2022/01/15 02:02:24;;;;;;;0.30;0.20;;;-0.10;99.90;;;;;;5069594;28;20202;-91
2022/01/15 02:04:51;;;;;;;0.40;0.30;;;-0.10;99.90;;;;;;5070335;28;20269;-92
2022/01/15 02:07:18;;;;;;;0.40;0.20;;;-0.20;99.90;;;;;;5087805;28;20203;-91
2022/01/15 02:09:45;;;;;;;0.30;0.20;;;-0.30;99.90;;;;;;5082905;28;20203;-90
2022/01/15 02:12:12;;;;;;;0.30;0.20;;;-0.40;99.90;;;;;;5077450;28;20228;-92
2022/01/15 02:14:41;;;;;;;0.30;0.10;;;-0.40;99.90;;;;;;5089875;28;20192;-90
2022/01/15 02:17:08;;;;;;;0.30;0.20;;;-0.30;99.90;;;;;;5081127;28;20207;-90
2022/01/15 02:19:45;;;;;;;0.30;0.10;;;-0.30;99.90;;;;;;5074310;28;20207;-90
2022/01/15 02:24:57;;;;;;;1.05;0.98;;;-0.30;99.90;;;;;;5089350;28;20283;-90
2022/01/15 02:27:24;;;;;;;0.30;0.10;;;-0.50;99.90;;;;;;5075012;28;20209;-91
2022/01/15 02:29:51;;;;;;;0.82;0.82;;;-0.60;99.90;;;;;;5074529;28;20197;-90
2022/01/15 02:32:18;;;;;;;0.30;0.10;;;-0.50;99.90;;;;;;5084239;28;20210;-90
2022/01/15 02:34:46;;;;;;;0.30;0.10;;;-0.50;99.90;;;;;;5085445;28;20214;-92
2022/01/15 02:37:13;;;;;;;0.30;0.10;;;-0.40;99.90;;;;;;5080555;28;20276;-91
2022/01/15 02:39:40;;;;;;;0.30;0.10;;;-0.40;99.90;;;;;;5084257;28;20198;-92
2022/01/15 02:42:08;;;;;;;0.30;0.10;;;-0.50;99.90;;;;;;5078649;28;20203;-91
2022/01/15 02:44:38;;;;;;;0.30;0.10;;;-0.50;99.90;;;;;;5075042;28;20194;-91
2022/01/15 02:49:51;;;;;;;2.22;2.13;;;-0.60;99.90;;;;;;5078402;28;20252;-90
2022/01/15 02:52:18;;;;;;;0.30;0.10;;;-0.70;99.90;;;;;;5083213;28;20786;-90
2022/01/15 02:54:45;;;;;;;0.77;0.77;;;-0.70;99.90;;;;;;5083366;28;20215;-92
2022/01/15 02:57:12;;;;;;;0.30;0.20;;;-0.80;99.90;;;;;;5072530;28;20246;-90
2022/01/15 02:59:41;;;;;;;0.30;0.30;;;-0.70;99.90;;;;;;5095755;28;20255;-92
2022/01/15 03:02:08;;;;;;;0.30;0.20;;;-0.80;99.90;;;;;;5089101;28;20209;-91
2022/01/15 03:04:35;;;;;;;0.30;0.20;;;-0.80;99.90;;;;;;5111178;28;20203;-90
2022/01/15 03:07:05;;;;;;;0.30;0.20;;;-0.80;99.90;;;;;;5107618;28;20188;-89
2022/01/15 03:09:32;;;;;;;0.30;0.10;;;-0.90;99.90;;;;;;5103870;28;20196;-90
2022/01/15 03:12:02;;;;;;;0.30;0.20;;;-0.90;99.90;;;;;;5084277;28;20681;-91
2022/01/15 03:14:31;;;;;;;2.70;0.68;;;-1.00;99.90;;;;;;5077588;28;20203;-90
2022/01/15 03:16:58;;;;;;;0.98;0.98;;;-0.90;99.90;;;;;;5091575;28;20195;-91
2022/01/15 03:19:25;;;;;;;0.30;0.10;;;-0.90;99.90;;;;;;5087993;28;20276;-91
2022/01/15 03:21:52;;;;;;;0.30;0.10;;;-1.00;99.90;;;;;;5090295;28;20203;-88
2022/01/15 03:24:20;;;;;;;0.30;0.10;;;-1.00;99.90;;;;;;5090500;28;20257;-93
2022/01/15 03:26:47;;;;;;;0.30;0.10;;;-1.10;99.90;;;;;;5081741;28;20196;-90
2022/01/15 03:29:14;;;;;;;0.30;0.10;;;-1.00;99.90;;;;;;5076530;28;20589;-92
2022/01/15 03:31:41;;;;;;;0.30;0.10;;;-1.00;99.90;;;;;;5079540;28;20435;-91
2022/01/15 03:34:08;;;;;;;0.40;0.30;;;-1.00;99.90;;;;;;5074845;28;20274;-90
2022/01/15 03:36:35;;;;;;;0.30;0.10;;;-1.00;99.90;;;;;;5087511;28;20211;-89
2022/01/15 03:39:02;;;;;;;0.30;0.20;;;-1.00;99.90;;;;;;5088884;28;20200;-93
2022/01/15 03:41:31;;;;;;;0.30;0.10;;;-1.00;99.90;;;;;;5087576;28;20203;-90
2022/01/15 03:43:58;;;;;;;0.30;0.10;;;-1.00;99.90;;;;;;5083315;28;20204;-91
2022/01/15 03:46:25;;;;;;;0.30;0.10;;;-1.10;99.90;;;;;;5092264;28;20199;-91
2022/01/15 03:48:52;;;;;;;0.30;0.10;;;-1.20;99.90;;;;;;5077205;28;20199;-91
2022/01/15 03:51:19;;;;;;;0.30;0.10;;;-1.30;99.90;;;;;;5076275;28;20229;-90
2022/01/15 03:53:47;;;;;;;0.30;0.10;;;-1.40;99.90;;;;;;5081742;28;20629;-90
2022/01/15 03:56:14;;;;;;;0.30;0.10;;;-1.40;99.90;;;;;;5092141;28;20199;-92
2022/01/15 03:58:42;;;;;;;0.30;0.10;;;-1.30;99.90;;;;;;5088571;28;20231;-90
2022/01/15 04:01:09;;;;;;;0.30;0.10;;;-1.30;99.90;;;;;;5085852;28;20815;-90
2022/01/15 04:03:36;;;;;;;0.40;0.30;;;-1.40;99.90;;;;;;5089671;28;20261;-91
2022/01/15 04:06:03;;;;;;;0.30;0.10;;;-1.50;99.90;;;;;;5086719;28;20198;-91
2022/01/15 04:08:30;;;;;;;0.30;0.10;;;-1.50;99.90;;;;;;5083752;28;20646;-92
2022/01/15 04:10:57;;;;;;;0.30;0.10;;;-1.60;99.90;;;;;;5082484;28;20243;-93
2022/01/15 04:13:24;;;;;;;0.50;0.43;;;-1.50;99.90;;;;;;5087880;28;20259;-91
2022/01/15 04:15:53;;;;;;;0.30;0.10;;;-1.50;99.90;;;;;;5088933;28;20605;-93
2022/01/15 04:18:21;;;;;;;0.30;0.10;;;-1.50;99.90;;;;;;5084421;28;20719;-93
2022/01/15 04:20:49;;;;;;;0.30;0.10;;;-1.70;99.90;;;;;;5087703;28;20717;-90
2022/01/15 04:23:16;;;;;;;0.38;0.22;;;-1.70;99.90;;;;;;5078870;28;20205;-91
2022/01/15 04:25:43;;;;;;;0.30;0.10;;;-1.70;99.90;;;;;;5090496;28;20199;-92
2022/01/15 04:28:11;;;;;;;0.30;0.20;;;-1.70;99.90;;;;;;5089432;28;20208;-90
2022/01/15 04:30:40;;;;;;;0.30;0.10;;;-1.80;99.90;;;;;;5087394;28;20197;-93
2022/01/15 04:33:09;;;;;;;0.73;0.52;;;-1.70;99.90;;;;;;5084452;28;20845;-91
2022/01/15 04:35:36;;;;;;;1.58;0.95;;;-1.70;99.90;;;;;;5085904;28;20275;-91
2022/01/15 04:38:04;;;;;;;0.30;0.10;;;-1.70;99.90;;;;;;5091804;28;20263;-92
2022/01/15 04:40:31;;;;;;;0.40;0.30;;;-1.60;99.90;;;;;;5114805;28;20194;-94
2022/01/15 04:42:58;;;;;;;0.40;0.30;;;-1.60;99.90;;;;;;5113342;28;20214;-91
2022/01/15 04:45:25;;;;;;;0.30;0.10;;;-1.60;99.90;;;;;;5111942;28;20601;-90
2022/01/15 04:47:52;;;;;;;0.40;0.40;;;-1.70;99.90;;;;;;5096368;28;20198;-90
2022/01/15 04:50:21;;;;;;;2.17;0.77;;;-1.70;99.90;;;;;;5086808;28;20681;-91
2022/01/15 04:52:48;;;;;;;1.38;0.85;;;-1.80;99.90;;;;;;5091457;28;20220;-91
2022/01/15 04:55:15;;;;;;;0.95;0.45;;;-1.90;99.90;;;;;;5084247;28;20210;-90
2022/01/15 04:57:43;;;;;;;0.30;0.10;;;-1.90;99.90;;;;;;5084821;28;20230;-93
2022/01/15 05:00:13;;;;;;;0.60;0.57;;;-1.90;99.90;;;;;;5088381;28;20202;-90
2022/01/15 05:02:39;;;;;;;1.30;1.30;;;-2.00;99.90;;;;;;5088502;28;20196;-91
2022/01/15 05:05:08;;;;;;;0.30;0.10;;;-2.00;99.90;;;;;;5082556;28;20193;-89
2022/01/15 05:07:36;;;;;;;1.85;0.73;;;-2.00;99.90;;;;;;5091635;28;20262;-90
2022/01/15 05:10:05;;;;;;;0.30;0.20;;;-2.00;99.90;;;;;;5079483;28;20205;-91
2022/01/15 05:12:40;;;;;;;0.30;0.20;;;-1.90;99.90;;;;;;5085233;28;20280;-90
2022/01/15 05:15:08;;;;;;;0.30;0.10;;;-1.90;99.90;;;;;;5087840;28;20215;-91
2022/01/15 05:17:35;;;;;;;0.30;0.10;;;-2.00;99.90;;;;;;5084214;28;20205;-92
2022/01/15 05:20:02;;;;;;;0.30;0.10;;;-2.00;99.90;;;;;;5084738;28;20648;-90
2022/01/15 05:22:29;;;;;;;0.30;0.10;;;-2.10;99.90;;;;;;5089027;28;20203;-92
2022/01/15 05:24:57;;;;;;;0.30;0.10;;;-2.20;99.90;;;;;;5087240;28;20287;-91
2022/01/15 05:27:24;;;;;;;0.30;0.20;;;-2.20;99.90;;;;;;5090355;28;20202;-92
2022/01/15 05:29:51;;;;;;;0.30;0.20;;;-2.20;99.90;;;;;;5090304;28;20198;-92
2022/01/15 05:32:19;;;;;;;0.30;0.10;;;-2.20;99.90;;;;;;5091303;28;20244;-90
2022/01/15 05:34:46;;;;;;;0.35;0.22;;;-2.20;99.90;;;;;;5088195;28;20202;-91
2022/01/15 05:37:13;;;;;;;0.30;0.10;;;-2.10;99.90;;;;;;5088220;28;20196;-91
2022/01/15 05:39:40;;;;;;;0.30;0.10;;;-2.00;99.90;;;;;;5075829;28;20201;-91
2022/01/15 05:42:09;;;;;;;0.30;0.10;;;-2.00;99.90;;;;;;5076294;28;20205;-90
2022/01/15 05:44:36;;;;;;;1.88;1.15;;;-2.00;99.90;;;;;;5077260;28;20205;-90
2022/01/15 05:47:04;;;;;;;0.30;0.10;;;-2.10;99.90;;;;;;5090141;28;20665;-92
2022/01/15 05:49:31;;;;;;;0.30;0.10;;;-2.20;99.90;;;;;;5087584;28;20717;-90
2022/01/15 05:51:58;;;;;;;0.30;0.10;;;-2.20;99.90;;;;;;5072858;28;20215;-90
2022/01/15 05:54:25;;;;;;;0.30;0.20;;;-2.20;99.90;;;;;;5087773;28;20266;-89
2022/01/15 05:56:52;;;;;;;0.95;0.52;;;-2.10;99.90;;;;;;5079160;28;20281;-90
2022/01/15 05:59:20;;;;;;;0.30;0.20;;;-2.10;99.90;;;;;;5072098;28;20769;-90
2022/01/15 06:01:47;;;;;;;0.30;0.10;;;-2.20;99.90;;;;;;5071882;28;20703;-89
2022/01/15 06:04:14;;;;;;;0.30;0.20;;;-2.20;99.90;;;;;;5076271;28;20202;-89
2022/01/15 06:06:41;;;;;;;0.30;0.10;;;-2.20;99.90;;;;;;5069824;28;20247;-89
2022/01/15 06:09:09;;;;;;;0.30;0.10;;;-2.30;99.90;;;;;;5070789;28;20648;-88
2022/01/15 06:11:38;;;;;;;0.30;0.10;;;-2.20;99.90;;;;;;5079006;28;20229;-89
2022/01/15 06:14:05;;;;;;;2.50;2.40;;;-2.20;99.90;;;;;;5097332;28;20262;-88
2022/01/15 06:16:33;;;;;;;0.95;0.95;;;-2.00;99.90;;;;;;5101237;28;20189;-88
2022/01/15 06:19:01;;;;;;;0.30;0.10;;;-2.00;99.90;;;;;;5110065;28;20219;-88
2022/01/15 06:21:28;;;;;;;0.63;0.63;;;-2.10;99.90;;;;;;5100196;28;20349;-88
2022/01/15 06:23:55;;;;;;;0.30;0.20;;;-2.10;99.90;;;;;;5090770;28;20200;-88
2022/01/15 06:26:21;;;;;;;0.30;0.10;;;-2.10;99.90;;;;;;5086948;28;20254;-89
2022/01/15 06:28:49;;;;;;;0.57;0.57;;;-2.10;99.90;;;;;;5078683;28;20197;-89
2022/01/15 06:31:16;;;;;;;0.30;0.20;;;-2.10;99.90;;;;;;5082894;28;20617;-88
2022/01/15 06:33:44;;;;;;;0.30;0.10;;;-2.20;99.90;;;;;;5080215;28;20244;-89
2022/01/15 06:36:11;;;;;;;0.30;0.10;;;-2.30;99.90;;;;;;5086332;28;20193;-88
2022/01/15 06:38:38;;;;;;;0.30;0.20;;;-2.40;99.90;;;;;;5083972;28;20258;-89
2022/01/15 06:41:05;;;;;;;0.30;0.28;;;-2.50;99.90;;;;;;5085382;28;20918;-88
2022/01/15 06:43:32;;;;;;;0.30;0.10;;;-2.50;99.90;;;;;;5081808;28;20278;-89
2022/01/15 06:45:59;;;;;;;0.30;0.20;;;-2.60;99.90;;;;;;5087984;28;20284;-89
2022/01/15 06:48:28;;;;;;;0.30;0.10;;;-2.60;99.90;;;;;;5090093;28;20632;-89
2022/01/15 06:50:57;;;;;;;0.30;0.10;;;-2.60;99.90;;;;;;5086193;28;20203;-89
2022/01/15 06:53:24;;;;;;;1.15;1.15;;;-2.60;99.90;;;;;;5086656;28;20221;-88
2022/01/15 06:55:52;;;;;;;0.30;0.10;;;-2.60;99.90;;;;;;5076049;28;20260;-89
2022/01/15 06:58:19;;;;;;;0.30;0.10;;;-2.50;99.90;;;;;;5089976;28;20856;-89
2022/01/15 07:00:46;;;;;;;0.30;0.10;;;-2.40;99.90;;;;;;5070987;28;20881;-89
2022/01/15 07:03:13;;;;;;;7.70;1.75;;;-2.40;99.90;;;;;;5089135;28;20201;-88
2022/01/15 07:05:40;;;;;;;0.30;0.10;;;-2.40;99.90;;;;;;5086493;28;20646;-89
2022/01/15 07:08:10;;;;;;;0.30;0.10;;;-2.40;99.90;;;;;;5088806;28;20251;-87
2022/01/15 07:10:39;;;;;;;0.30;0.10;;;-2.40;99.90;;;;;;5088695;28;20198;-87
2022/01/15 07:13:06;;;;;;;0.30;0.10;;;-2.30;99.90;;;;;;5076294;28;20308;-88
2022/01/15 07:15:33;;;;;;;0.30;0.10;;;-2.20;99.90;;;;;;5069035;28;20202;-88
2022/01/15 07:18:00;;;;;;;1.77;1.33;;;-2.10;99.90;;;;;;5070372;28;20221;-87
2022/01/15 07:20:28;;;;;;;0.30;0.10;;;-2.00;99.90;;;;;;5081959;28;20636;-87
2022/01/15 07:22:57;;;;;;;0.30;0.10;;;-2.00;99.90;;;;;;5089802;28;20681;-92
2022/01/15 07:25:26;;;;;;;0.30;0.10;;;-1.90;99.90;;;;;;5074739;28;20251;-88
2022/01/15 07:27:53;;;;;;;0.30;0.10;;;-1.90;99.90;;;;;;5080057;28;20636;-87
2022/01/15 07:30:20;;;;;;;0.40;0.20;;;-1.90;99.90;;;;;;5083337;28;20203;-86
2022/01/15 07:32:47;;;;;;;0.30;0.10;;;-1.80;99.90;;;;;;5081250;28;20316;-88
2022/01/15 07:35:15;;;;;;;0.30;0.20;;;-1.90;99.90;;;;;;5092975;28;20516;-88
2022/01/15 07:37:42;;;;;;;0.30;0.10;;;-1.70;99.90;;;;;;5093427;28;20193;-88
2022/01/15 07:40:10;;;;;;;0.40;0.30;;;-1.60;99.90;;;;;;5081057;28;20212;-88
2022/01/15 07:42:40;;;;;;;0.65;0.40;;;-1.60;99.90;;;;;;5092430;28;20530;-89
2022/01/15 07:45:10;;;;;;;0.30;0.10;;;-1.60;99.90;;;;;;5088297;28;20218;-89
2022/01/15 07:47:37;;;;;;;0.30;0.10;;;-1.60;99.90;;;;;;5095961;28;20202;-89
2022/01/15 07:50:05;;;;;;;0.30;0.10;;;-1.60;99.90;;;;;;5117659;28;20228;-88
2022/01/15 07:52:33;;;;;;;0.30;0.10;;;-1.60;99.90;;;;;;5109521;28;20246;-88
2022/01/15 07:55:00;;;;;;;0.30;0.10;;;-1.50;99.90;;;;;;5094213;28;20198;-86
2022/01/15 07:57:28;;;;;;;0.30;0.20;;;-1.40;99.90;;;;;;5093824;28;20241;-87
2022/01/15 07:59:57;;;;;;;0.30;0.10;;;-1.20;99.90;;;;;;5083254;28;20199;-88
2022/01/15 08:02:25;;;;;;;0.30;0.10;;;-1.30;99.90;;;;;;5075980;28;20324;-88
2022/01/15 08:04:51;;;;;;;0.30;0.20;;;-1.30;99.90;;;;;;5083443;28;20205;-88
2022/01/15 08:07:19;;;;;;;0.35;0.20;;;-1.20;99.90;;;;;;5088219;28;20205;-88
2022/01/15 08:09:46;;;;;;;0.30;0.10;;;-1.10;99.90;;;;;;5090406;28;20715;-88
2022/01/15 08:12:13;;;;;;;0.43;0.43;;;-1.00;99.90;;;;;;5092167;28;20628;-87
2022/01/15 08:14:40;;;;;;;0.30;0.20;;;-0.90;99.90;;;;;;5092491;28;20260;-88
2022/01/15 08:17:08;;;;;;;0.30;0.20;;;-0.90;99.90;;;;;;5087599;28;20256;-88
2022/01/15 08:19:35;;;;;;;0.30;0.20;;;-0.70;99.90;;;;;;5077563;28;20189;-85
2022/01/15 08:22:02;;;;;;;0.30;0.17;;;-0.50;99.90;;;;;;5091886;28;20648;-86
2022/01/15 08:24:29;;;;;;;0.30;0.10;;;-0.40;99.90;;;;;;5085554;28;20189;-85
2022/01/15 08:26:56;;;;;;;0.30;0.20;;;-0.40;99.90;;;;;;5090265;28;20204;-85
2022/01/15 08:29:23;;;;;;;2.28;2.25;;;-0.30;99.90;;;;;;5092006;28;20283;-87
2022/01/15 08:31:50;;;;;;;0.50;0.50;;;-0.20;99.90;;;;;;5091200;28;20204;-87
2022/01/15 08:34:18;;;;;;;0.30;0.20;;;-0.30;99.90;;;;;;5090173;28;20249;-87
2022/01/15 08:36:46;;;;;;;0.50;0.35;;;-0.20;99.90;;;;;;5076707;28;20431;-87
2022/01/15 08:39:12;;;;;;;0.30;0.10;;;-0.10;99.90;;;;;;5081155;28;20334;-87
2022/01/15 08:41:39;;;;;;;0.40;0.30;;;0.00;99.90;;;;;;5076642;28;20200;-87
2022/01/15 08:44:07;;;;;;;0.30;0.10;;;0.00;99.90;;;;;;5080771;28;20208;-88
2022/01/15 08:46:34;;;;;;;0.30;0.20;;;0.00;99.90;;;;;;5088714;28;20206;-87
2022/01/15 08:49:01;;;;;;;0.30;0.20;;;0.00;99.90;;;;;;5091227;28;20193;-87
2022/01/15 08:51:30;;;;;;;0.40;0.32;;;0.10;99.90;;;;;;5090818;28;20191;-87
2022/01/15 08:53:57;;;;;;;0.30;0.20;;;0.30;99.90;;;;;;5091842;28;20613;-87
2022/01/15 08:56:24;;;;;;;0.35;0.17;;;0.20;99.90;;;;;;5090768;28;20632;-87
2022/01/15 08:58:51;;;;;;;0.30;0.10;;;0.30;99.90;;;;;;5092550;28;20207;-87
2022/01/15 09:01:18;;;;;;;0.30;0.10;;;0.30;99.90;;;;;;5091162;28;20210;-88
2022/01/15 09:03:46;;;;;;;0.30;0.20;;;0.50;99.90;;;;;;5088405;28;20238;-85
2022/01/15 09:06:13;;;;;;;0.40;0.38;;;0.50;99.90;;;;;;5071350;28;20203;-85
2022/01/15 09:08:42;;;;;;;0.30;0.10;;;0.60;99.90;;;;;;5088440;28;20208;-85
2022/01/15 09:11:09;;;;;;;0.43;0.43;;;0.60;99.90;;;;;;5089561;28;20844;-84
2022/01/15 09:13:36;;;;;;;0.30;0.20;;;0.60;99.90;;;;;;5080480;28;20258;-87
2022/01/15 09:16:03;;;;;;;0.30;0.20;;;0.60;99.90;;;;;;5073461;28;20225;-89
2022/01/15 09:18:30;;;;;;;0.60;0.60;;;0.60;99.90;;;;;;5072103;28;20573;-89
2022/01/15 09:20:57;;;;;;;0.38;0.20;;;0.60;99.90;;;;;;5087578;28;20439;-88
2022/01/15 09:23:24;;;;;;;0.30;0.20;;;0.60;99.90;;;;;;5103336;28;20186;-87
2022/01/15 09:25:57;;;;;;;0.40;0.30;;;0.70;99.90;;;;;;5107303;28;20197;-87
2022/01/15 09:31:11;;;;;;;0.30;0.10;;;0.70;99.90;;;;;;5093409;28;20207;-88
2022/01/15 09:33:38;;;;;;;10.95;2.30;;;0.80;99.90;;;;;;5092825;28;20570;-87
2022/01/15 09:36:06;;;;;;;1.50;0.50;;;0.90;99.90;;;;;;5091869;28;20204;-86
2022/01/15 09:38:33;;;;;;;0.70;0.60;;;0.90;99.90;;;;;;5091675;28;20207;-91
2022/01/15 09:41:02;;;;;;;0.30;0.10;;;1.00;99.90;;;;;;5091841;28;20204;-86
2022/01/15 09:43:29;;;;;;;0.30;0.20;;;1.00;99.90;;;;;;5091759;28;20610;-89
2022/01/15 09:45:59;;;;;;;0.30;0.10;;;1.00;99.90;;;;;;5082007;28;20572;-88
2022/01/15 09:48:28;;;;;;;0.30;0.10;;;1.00;99.90;;;;;;5070993;28;20203;-88
2022/01/15 09:50:55;;;;;;;1.85;1.75;;;1.00;99.90;;;;;;5071229;28;20234;-86
2022/01/15 09:53:22;;;;;;;0.30;0.10;;;1.10;99.90;;;;;;5070035;28;20272;-85
2022/01/15 09:55:49;;;;;;;0.67;0.67;;;1.20;99.90;;;;;;5082862;28;20207;-87
2022/01/15 09:58:18;;;;;;;1.13;1.05;;;1.30;99.90;;;;;;5076971;28;20486;-87
2022/01/15 10:00:45;;;;;;;0.30;0.10;;;1.30;99.90;;;;;;5070958;28;20199;-85
2022/01/15 10:03:12;;;;;;;0.30;0.10;;;1.30;99.90;;;;;;5081309;28;20453;-86
2022/01/15 10:05:39;;;;;;;0.30;0.20;;;1.40;99.90;;;;;;5090966;28;20213;-84
2022/01/15 10:08:09;;;;;;;0.40;0.30;;;1.30;99.90;;;;;;5090258;28;20212;-84
2022/01/15 10:10:38;;;;;;;0.95;0.95;;;1.40;99.90;;;;;;5074500;28;21200;-86
2022/01/15 10:13:14;;;;;;;0.30;0.10;;;1.40;99.90;;;;;;5081700;28;20252;-84
2022/01/15 10:15:46;;;;;;;0.30;0.13;;;1.60;99.90;;;;;;5087509;28;20456;-86
2022/01/15 10:18:21;;;;;;;0.30;0.22;;;1.50;99.90;;;;;;5091168;28;20442;-88
2022/01/15 10:20:48;;;;;;;0.30;0.10;;;1.60;99.90;;;;;;5082539;28;20200;-87
2022/01/15 10:23:16;;;;;;;0.30;0.10;;;1.50;99.90;;;;;;5074742;28;20709;-90
2022/01/15 10:25:43;;;;;;;0.30;0.20;;;1.60;99.90;;;;;;5083410;28;20642;-90
2022/01/15 10:28:10;;;;;;;0.30;0.20;;;1.60;99.90;;;;;;5089755;28;20208;-90
2022/01/15 10:30:41;;;;;;;0.30;0.30;;;1.60;99.90;;;;;;5078110;28;20469;-86
2022/01/15 10:33:10;;;;;;;0.32;0.20;;;1.70;99.90;;;;;;5089495;28;20215;-84
2022/01/15 10:35:40;;;;;;;0.30;0.10;;;1.60;99.90;;;;;;5090096;28;20208;-89
2022/01/15 10:38:09;;;;;;;0.30;0.10;;;1.60;99.90;;;;;;5089640;28;20477;-87
2022/01/15 10:40:41;;;;;;;0.30;0.10;;;1.60;99.90;;;;;;5090309;28;20450;-87
2022/01/15 10:43:09;;;;;;;0.40;0.20;;;1.60;99.90;;;;;;5107602;28;20594;-88
2022/01/15 10:45:47;;;;;;;0.30;0.10;;;1.60;99.90;;;;;;5090076;28;20312;-87
2022/01/15 10:48:22;;;;;;;0.40;0.40;;;1.60;99.90;;;;;;5069564;28;20917;-88
2022/01/15 10:50:57;;;;;;;0.40;0.20;;;1.70;99.90;;;;;;5070431;28;20246;-88
2022/01/15 10:53:34;;;;;;;0.30;0.10;;;1.70;99.90;;;;;;5074253;28;20566;-87
2022/01/15 10:56:02;;;;;;;0.30;0.10;;;1.80;99.90;;;;;;5095581;28;20454;-87
2022/01/15 10:58:29;;;;;;;0.40;0.27;;;1.80;99.90;;;;;;5109590;28;20515;-87
2022/01/15 11:00:56;;;;;;;0.30;0.20;;;1.90;99.90;;;;;;5090565;28;20442;-87
2022/01/15 11:03:37;;;;;;;0.30;0.20;;;2.00;99.90;;;;;;5103413;28;20453;-89
2022/01/15 11:06:05;;;;;;;0.30;0.10;;;2.00;99.90;;;;;;5097021;28;20489;-85
2022/01/15 11:08:36;;;;;;;0.30;0.20;;;2.10;99.90;;;;;;5094813;28;20966;-88
2022/01/15 11:11:05;;;;;;;0.30;0.17;;;2.10;99.90;;;;;;5089278;28;20527;-87
2022/01/15 11:13:35;;;;;;;0.30;0.20;;;2.30;99.90;;;;;;5093260;28;20564;-84
2022/01/15 11:16:04;;;;;;;0.67;0.67;;;2.30;99.90;;;;;;5093931;28;20975;-85
2022/01/15 11:18:34;;;;;;;1.93;1.93;;;2.40;99.90;;;;;;5085853;28;20487;-86
2022/01/15 11:21:04;;;;;;;0.40;0.40;;;2.50;99.90;;;;;;5090644;28;20435;-86
2022/01/15 11:23:33;;;;;;;0.30;0.20;;;2.50;99.90;;;;;;5087830;28;21048;-86
2022/01/15 11:26:02;;;;;;;0.50;0.50;;;2.60;99.90;;;;;;5082709;28;21022;-85
2022/01/15 11:28:33;;;;;;;0.30;0.10;;;2.70;99.90;;;;;;5093309;28;20801;-86
2022/01/15 11:31:02;;;;;;;1.80;1.17;;;2.70;99.90;;;;;;5084773;28;20485;-87
2022/01/15 11:33:32;;;;;;;0.33;0.17;;;2.60;99.90;;;;;;5081227;28;20564;-86
2022/01/15 11:36:01;;;;;;;3.93;0.57;;;2.70;99.90;;;;;;5092195;28;20451;-83
2022/01/15 11:38:45;;;;;;;0.30;0.20;;;3.00;99.90;;;;;;5089898;28;20443;-86
2022/01/15 11:41:39;;;;;;;1.80;1.70;;;2.90;99.90;;;;;;5089470;28;20507;-87
2022/01/15 11:44:08;;;;;;;0.30;0.10;;;2.80;99.90;;;;;;5092832;28;20544;-86
2022/01/15 11:46:42;;;;;;;0.40;0.20;;;2.90;99.90;;;;;;5091982;28;20443;-84
2022/01/15 11:49:34;;;;;;;0.50;0.30;;;2.90;99.90;;;;;;5090887;28;20476;-86
2022/01/15 11:52:44;;;;;;;0.30;0.20;;;3.00;99.90;;;;;;5091296;28;20462;-86
2022/01/15 11:55:18;;;;;;;0.57;0.57;;;3.20;99.90;;;;;;5080985;28;20610;-86
2022/01/15 11:57:47;;;;;;;0.30;0.20;;;3.30;99.90;;;;;;5091174;28;20478;-86
2022/01/15 12:00:20;;;;;;;0.40;0.30;;;3.40;99.90;;;;;;5073083;28;20438;-87
2022/01/15 12:03:01;;;;;;;0.40;0.30;;;3.40;99.90;;;;;;5076221;28;20462;-85
2022/01/15 12:05:32;;;;;;;0.30;0.10;;;3.60;99.90;;;;;;5079595;28;20446;-85
2022/01/15 12:08:38;;;;;;;0.30;0.20;;;3.60;99.90;;;;;;5086296;28;20455;-86
2022/01/15 12:11:06;;;;;;;0.40;0.23;;;3.50;99.90;;;;;;5071646;28;20911;-86
2022/01/15 12:13:52;;;;;;;0.30;0.17;;;3.50;99.90;;;;;;5087342;28;20486;-85
2022/01/15 12:16:36;;;;;;;0.30;0.10;;;3.60;99.90;;;;;;5085935;28;21303;-86
2022/01/15 12:19:04;;;;;;;0.30;0.10;;;3.60;99.90;;;;;;5072295;28;20535;-86
2022/01/15 12:22:03;;;;;;;0.30;0.20;;;3.70;99.90;;;;;;5078948;28;20455;-85
2022/01/15 12:24:50;;;;;;;0.30;0.10;;;3.60;99.90;;;;;;5083868;28;20489;-86
2022/01/15 12:27:20;;;;;;;0.30;0.10;;;3.70;99.90;;;;;;5085773;28;20928;-86
2022/01/15 12:29:47;;;;;;;0.30;0.10;;;3.70;99.90;;;;;;5095924;28;20457;-86
2022/01/15 12:32:28;;;;;;;0.30;0.20;;;3.80;99.90;;;;;;5116250;28;20443;-88
2022/01/15 12:34:56;;;;;;;0.30;0.20;;;3.90;99.90;;;;;;5109134;28;20569;-86
2022/01/15 12:37:25;;;;;;;0.63;0.40;;;3.90;99.90;;;;;;5101346;28;20455;-86
2022/01/15 12:39:53;;;;;;;0.30;0.10;;;3.90;99.90;;;;;;5081091;28;20454;-87
2022/01/15 12:42:21;;;;;;;0.60;0.50;;;3.90;99.90;;;;;;5087906;28;20504;-86
2022/01/15 12:44:51;;;;;;;0.30;0.17;;;4.10;99.90;;;;;;5092909;28;20971;-88
2022/01/15 12:47:18;;;;;;;0.63;0.57;;;4.20;99.90;;;;;;5092128;28;20443;-86
2022/01/15 12:49:47;;;;;;;0.30;0.10;;;4.20;99.90;;;;;;5091863;28;20434;-87
2022/01/15 12:52:17;;;;;;;0.30;0.20;;;4.20;99.90;;;;;;5081052;28;20532;-87
2022/01/15 12:54:50;;;;;;;0.43;0.43;;;4.20;99.90;;;;;;5072374;28;21057;-86
2022/01/15 12:57:43;;;;;;;0.50;0.37;;;4.40;99.90;;;;;;5075278;28;20572;-89
2022/01/15 13:00:12;;;;;;;0.30;0.10;;;4.30;99.90;;;;;;5090813;28;20437;-90
2022/01/15 13:02:39;;;;;;;0.30;0.10;;;4.40;99.90;;;;;;5078126;28;20524;-86
2022/01/15 13:05:11;;;;;;;2.43;0.97;;;4.20;99.90;;;;;;5088758;28;20443;-86
2022/01/15 13:07:51;;;;;;;0.30;0.13;;;4.20;99.90;;;;;;5071969;28;20464;-86
2022/01/15 13:10:48;;;;;;;0.30;0.10;;;4.30;99.90;;;;;;5075598;28;20439;-86
2022/01/15 13:13:21;;;;;;;0.30;0.10;;;4.20;99.90;;;;;;5084605;28;20522;-86
2022/01/15 13:15:49;;;;;;;0.30;0.20;;;4.20;99.90;;;;;;5087487;28;21067;-86
2022/01/15 13:18:18;;;;;;;0.30;0.10;;;4.20;99.90;;;;;;5078351;28;20513;-86
2022/01/15 13:20:49;;;;;;;0.30;0.10;;;4.20;99.90;;;;;;5089110;28;20496;-84
2022/01/15 13:23:16;;;;;;;0.30;0.10;;;4.10;99.90;;;;;;5088238;28;20450;-86
2022/01/15 13:25:49;;;;;;;0.30;0.20;;;4.20;99.90;;;;;;5090515;28;20543;-86